sensor_id;sensor_type;location;lat;lon;timestamp;P1;durP1;ratioP1;P2;durP2;ratioP2
40737;SDS011;54759;48.094;-1.628;2023-04-01T00:00:45;1.30;;;0.50;;
40737;SDS011;54759;48.094;-1.628;2023-04-01T00:03:46;0.65;;;0.50;;
40737;SDS011;54759;48.094;-1.628;2023-04-01T00:06:49;1.23;;;0.40;;
40737;SDS011;54759;48.094;-1.628;2023-04-01T00:09:52;0.65;;;0.40;;
40737;SDS011;54759;48.094;-1.628;2023-04-01T00:15:56;1.05;;;0.40;;
40737;SDS011;54759;48.094;-1.628;2023-04-01T00:19:00;1.70;;;0.50;;
40737;SDS011;54759;48.094;-1.628;2023-04-01T00:22:02;0.93;;;0.57;;
40737;SDS011;54759;48.094;-1.628;2023-04-01T00:25:04;1.75;;;0.70;;
40737;SDS011;54759;48.094;-1.628;2023-04-01T00:28:09;1.15;;;0.30;;
40737;SDS011;54759;48.094;-1.628;2023-04-01T00:31:11;0.82;;;0.40;;
40737;SDS011;54759;48.094;-1.628;2023-04-01T00:34:16;0.63;;;0.40;;
40737;SDS011;54759;48.094;-1.628;2023-04-01T00:37:17;0.93;;;0.30;;
40737;SDS011;54759;48.094;-1.628;2023-04-01T00:40:22;0.60;;;0.40;;
40737;SDS011;54759;48.094;-1.628;2023-04-01T00:43:25;1.30;;;0.50;;
40737;SDS011;54759;48.094;-1.628;2023-04-01T00:46:27;0.52;;;0.20;;
40737;SDS011;54759;48.094;-1.628;2023-04-01T00:49:31;0.95;;;0.50;;
40737;SDS011;54759;48.094;-1.628;2023-04-01T00:52:36;1.00;;;0.55;;
40737;SDS011;54759;48.094;-1.628;2023-04-01T00:55:39;1.10;;;0.40;;
40737;SDS011;54759;48.094;-1.628;2023-04-01T00:58:46;1.23;;;0.65;;
40737;SDS011;54759;48.094;-1.628;2023-04-01T01:01:52;1.10;;;0.40;;
40737;SDS011;54759;48.094;-1.628;2023-04-01T01:04:53;1.17;;;0.43;;
40737;SDS011;54759;48.094;-1.628;2023-04-01T01:07:57;0.70;;;0.25;;
40737;SDS011;54759;48.094;-1.628;2023-04-01T01:11:07;1.65;;;0.60;;
40737;SDS011;54759;48.094;-1.628;2023-04-01T01:14:17;1.02;;;0.43;;
40737;SDS011;54759;48.094;-1.628;2023-04-01T01:17:32;0.73;;;0.25;;
40737;SDS011;54759;48.094;-1.628;2023-04-01T01:24:27;0.52;;;0.20;;
40737;SDS011;54759;48.094;-1.628;2023-04-01T01:27:41;1.20;;;0.52;;
40737;SDS011;54759;48.094;-1.628;2023-04-01T01:30:49;0.30;;;0.30;;
40737;SDS011;54759;48.094;-1.628;2023-04-01T01:34:00;0.52;;;0.30;;
40737;SDS011;54759;48.094;-1.628;2023-04-01T01:37:14;0.60;;;0.30;;
40737;SDS011;54759;48.094;-1.628;2023-04-01T01:40:17;0.35;;;0.20;;
40737;SDS011;54759;48.094;-1.628;2023-04-01T01:43:21;0.32;;;0.22;;
40737;SDS011;54759;48.094;-1.628;2023-04-01T01:46:26;0.77;;;0.30;;
40737;SDS011;54759;48.094;-1.628;2023-04-01T01:49:30;0.77;;;0.30;;
40737;SDS011;54759;48.094;-1.628;2023-04-01T01:52:35;0.52;;;0.30;;
40737;SDS011;54759;48.094;-1.628;2023-04-01T01:55:37;0.70;;;0.30;;
40737;SDS011;54759;48.094;-1.628;2023-04-01T01:58:41;0.50;;;0.32;;
40737;SDS011;54759;48.094;-1.628;2023-04-01T02:01:48;0.30;;;0.20;;
40737;SDS011;54759;48.094;-1.628;2023-04-01T02:04:54;0.43;;;0.25;;
40737;SDS011;54759;48.094;-1.628;2023-04-01T02:07:59;0.52;;;0.30;;
40737;SDS011;54759;48.094;-1.628;2023-04-01T02:11:07;0.47;;;0.30;;
40737;SDS011;54759;48.094;-1.628;2023-04-01T02:14:16;1.02;;;0.50;;
40737;SDS011;54759;48.094;-1.628;2023-04-01T02:17:21;0.43;;;0.22;;
40737;SDS011;54759;48.094;-1.628;2023-04-01T02:20:26;0.70;;;0.20;;
40737;SDS011;54759;48.094;-1.628;2023-04-01T02:23:30;0.65;;;0.20;;
40737;SDS011;54759;48.094;-1.628;2023-04-01T02:26:34;0.20;;;0.20;;
40737;SDS011;54759;48.094;-1.628;2023-04-01T02:29:37;0.30;;;0.20;;
40737;SDS011;54759;48.094;-1.628;2023-04-01T02:32:41;0.38;;;0.35;;
40737;SDS011;54759;48.094;-1.628;2023-04-01T02:35:43;0.47;;;0.20;;
40737;SDS011;54759;48.094;-1.628;2023-04-01T02:41:47;0.80;;;0.20;;
40737;SDS011;54759;48.094;-1.628;2023-04-01T02:44:49;0.22;;;0.17;;
40737;SDS011;54759;48.094;-1.628;2023-04-01T02:50:52;0.30;;;0.20;;
40737;SDS011;54759;48.094;-1.628;2023-04-01T02:53:54;0.63;;;0.32;;
40737;SDS011;54759;48.094;-1.628;2023-04-01T02:56:55;0.55;;;0.30;;
40737;SDS011;54759;48.094;-1.628;2023-04-01T03:02:58;0.40;;;0.20;;
40737;SDS011;54759;48.094;-1.628;2023-04-01T03:06:04;0.38;;;0.20;;
40737;SDS011;54759;48.094;-1.628;2023-04-01T03:09:07;0.35;;;0.20;;
40737;SDS011;54759;48.094;-1.628;2023-04-01T03:12:08;0.20;;;0.10;;
40737;SDS011;54759;48.094;-1.628;2023-04-01T03:15:23;0.63;;;0.20;;
40737;SDS011;54759;48.094;-1.628;2023-04-01T03:18:30;0.52;;;0.20;;
40737;SDS011;54759;48.094;-1.628;2023-04-01T03:24:35;0.30;;;0.20;;
40737;SDS011;54759;48.094;-1.628;2023-04-01T03:27:37;0.47;;;0.30;;
40737;SDS011;54759;48.094;-1.628;2023-04-01T03:30:38;0.50;;;0.30;;
40737;SDS011;54759;48.094;-1.628;2023-04-01T03:33:41;0.20;;;0.20;;
40737;SDS011;54759;48.094;-1.628;2023-04-01T03:36:44;0.68;;;0.22;;
40737;SDS011;54759;48.094;-1.628;2023-04-01T03:39:46;0.50;;;0.22;;
40737;SDS011;54759;48.094;-1.628;2023-04-01T03:42:48;0.25;;;0.15;;
40737;SDS011;54759;48.094;-1.628;2023-04-01T03:45:50;0.35;;;0.20;;
40737;SDS011;54759;48.094;-1.628;2023-04-01T03:48:52;0.47;;;0.22;;
40737;SDS011;54759;48.094;-1.628;2023-04-01T03:51:53;0.38;;;0.20;;
40737;SDS011;54759;48.094;-1.628;2023-04-01T03:54:57;0.80;;;0.38;;
40737;SDS011;54759;48.094;-1.628;2023-04-01T03:57:59;0.47;;;0.28;;
40737;SDS011;54759;48.094;-1.628;2023-04-01T04:01:02;0.50;;;0.30;;
40737;SDS011;54759;48.094;-1.628;2023-04-01T04:04:06;1.65;;;0.43;;
40737;SDS011;54759;48.094;-1.628;2023-04-01T04:07:08;1.10;;;0.40;;
40737;SDS011;54759;48.094;-1.628;2023-04-01T04:10:30;1.42;;;0.50;;
40737;SDS011;54759;48.094;-1.628;2023-04-01T04:13:31;0.75;;;0.40;;
40737;SDS011;54759;48.094;-1.628;2023-04-01T04:16:35;1.35;;;0.68;;
40737;SDS011;54759;48.094;-1.628;2023-04-01T04:19:37;2.00;;;0.63;;
40737;SDS011;54759;48.094;-1.628;2023-04-01T04:25:53;1.52;;;0.43;;
40737;SDS011;54759;48.094;-1.628;2023-04-01T04:28:55;1.40;;;0.75;;
40737;SDS011;54759;48.094;-1.628;2023-04-01T04:31:57;2.08;;;0.75;;
40737;SDS011;54759;48.094;-1.628;2023-04-01T04:35:03;2.13;;;0.88;;
40737;SDS011;54759;48.094;-1.628;2023-04-01T04:38:08;2.17;;;0.80;;
40737;SDS011;54759;48.094;-1.628;2023-04-01T04:41:10;4.20;;;0.90;;
40737;SDS011;54759;48.094;-1.628;2023-04-01T04:44:14;2.10;;;0.60;;
40737;SDS011;54759;48.094;-1.628;2023-04-01T04:47:16;3.30;;;0.65;;
40737;SDS011;54759;48.094;-1.628;2023-04-01T04:50:18;2.53;;;0.68;;
40737;SDS011;54759;48.094;-1.628;2023-04-01T04:56:22;2.55;;;0.73;;
40737;SDS011;54759;48.094;-1.628;2023-04-01T04:59:36;1.50;;;0.55;;
40737;SDS011;54759;48.094;-1.628;2023-04-01T05:02:43;1.92;;;0.55;;
40737;SDS011;54759;48.094;-1.628;2023-04-01T05:08:50;1.90;;;0.63;;
40737;SDS011;54759;48.094;-1.628;2023-04-01T05:11:57;2.40;;;0.52;;
40737;SDS011;54759;48.094;-1.628;2023-04-01T05:15:05;1.15;;;0.50;;
40737;SDS011;54759;48.094;-1.628;2023-04-01T05:18:10;1.00;;;0.52;;
40737;SDS011;54759;48.094;-1.628;2023-04-01T05:24:14;1.67;;;0.38;;
40737;SDS011;54759;48.094;-1.628;2023-04-01T05:27:17;1.25;;;0.55;;
40737;SDS011;54759;48.094;-1.628;2023-04-01T05:30:20;1.33;;;0.50;;
40737;SDS011;54759;48.094;-1.628;2023-04-01T05:33:41;1.13;;;0.40;;
40737;SDS011;54759;48.094;-1.628;2023-04-01T05:36:43;0.68;;;0.43;;
40737;SDS011;54759;48.094;-1.628;2023-04-01T05:39:45;0.98;;;0.40;;
40737;SDS011;54759;48.094;-1.628;2023-04-01T05:42:47;0.50;;;0.30;;
40737;SDS011;54759;48.094;-1.628;2023-04-01T05:45:49;0.93;;;0.30;;
40737;SDS011;54759;48.094;-1.628;2023-04-01T05:49:07;0.70;;;0.40;;
40737;SDS011;54759;48.094;-1.628;2023-04-01T05:52:09;1.05;;;0.47;;
40737;SDS011;54759;48.094;-1.628;2023-04-01T05:58:13;0.50;;;0.20;;
40737;SDS011;54759;48.094;-1.628;2023-04-01T06:01:18;1.30;;;0.40;;
40737;SDS011;54759;48.094;-1.628;2023-04-01T06:07:21;0.38;;;0.20;;
40737;SDS011;54759;48.094;-1.628;2023-04-01T06:10:23;0.52;;;0.20;;
40737;SDS011;54759;48.094;-1.628;2023-04-01T06:13:48;0.93;;;0.30;;
40737;SDS011;54759;48.094;-1.628;2023-04-01T06:17:06;0.95;;;0.30;;
40737;SDS011;54759;48.094;-1.628;2023-04-01T06:20:21;0.40;;;0.30;;
40737;SDS011;54759;48.094;-1.628;2023-04-01T06:23:32;0.60;;;0.20;;
40737;SDS011;54759;48.094;-1.628;2023-04-01T06:26:46;0.55;;;0.20;;
40737;SDS011;54759;48.094;-1.628;2023-04-01T06:30:03;0.85;;;0.40;;
40737;SDS011;54759;48.094;-1.628;2023-04-01T06:33:21;0.90;;;0.30;;
40737;SDS011;54759;48.094;-1.628;2023-04-01T06:36:37;0.88;;;0.50;;
40737;SDS011;54759;48.094;-1.628;2023-04-01T06:39:53;0.85;;;0.30;;
40737;SDS011;54759;48.094;-1.628;2023-04-01T06:43:09;0.45;;;0.25;;
40737;SDS011;54759;48.094;-1.628;2023-04-01T06:46:31;0.30;;;0.30;;
40737;SDS011;54759;48.094;-1.628;2023-04-01T06:49:59;0.52;;;0.20;;
40737;SDS011;54759;48.094;-1.628;2023-04-01T06:53:28;0.30;;;0.28;;
40737;SDS011;54759;48.094;-1.628;2023-04-01T06:56:48;0.63;;;0.30;;
40737;SDS011;54759;48.094;-1.628;2023-04-01T06:59:58;0.75;;;0.32;;
40737;SDS011;54759;48.094;-1.628;2023-04-01T07:03:06;0.40;;;0.20;;
40737;SDS011;54759;48.094;-1.628;2023-04-01T07:06:20;0.30;;;0.30;;
40737;SDS011;54759;48.094;-1.628;2023-04-01T07:09:31;0.93;;;0.30;;
40737;SDS011;54759;48.094;-1.628;2023-04-01T07:12:58;0.38;;;0.20;;
40737;SDS011;54759;48.094;-1.628;2023-04-01T07:16:18;0.55;;;0.30;;
40737;SDS011;54759;48.094;-1.628;2023-04-01T07:19:27;0.45;;;0.20;;
40737;SDS011;54759;48.094;-1.628;2023-04-01T07:22:38;0.60;;;0.30;;
40737;SDS011;54759;48.094;-1.628;2023-04-01T07:25:55;0.60;;;0.25;;
40737;SDS011;54759;48.094;-1.628;2023-04-01T07:29:20;0.47;;;0.28;;
40737;SDS011;54759;48.094;-1.628;2023-04-01T07:32:31;0.93;;;0.50;;
40737;SDS011;54759;48.094;-1.628;2023-04-01T07:35:43;0.50;;;0.30;;
40737;SDS011;54759;48.094;-1.628;2023-04-01T07:38:51;0.32;;;0.17;;
40737;SDS011;54759;48.094;-1.628;2023-04-01T07:42:25;0.28;;;0.28;;
40737;SDS011;54759;48.094;-1.628;2023-04-01T07:45:33;0.85;;;0.20;;
40737;SDS011;54759;48.094;-1.628;2023-04-01T07:48:41;0.47;;;0.22;;
40737;SDS011;54759;48.094;-1.628;2023-04-01T07:51:50;0.65;;;0.30;;
40737;SDS011;54759;48.094;-1.628;2023-04-01T07:55:00;0.25;;;0.20;;
40737;SDS011;54759;48.094;-1.628;2023-04-01T07:58:12;0.63;;;0.25;;
40737;SDS011;54759;48.094;-1.628;2023-04-01T08:01:20;0.93;;;0.35;;
40737;SDS011;54759;48.094;-1.628;2023-04-01T08:04:36;0.57;;;0.25;;
40737;SDS011;54759;48.094;-1.628;2023-04-01T08:07:51;0.28;;;0.10;;
40737;SDS011;54759;48.094;-1.628;2023-04-01T08:11:21;0.55;;;0.35;;
40737;SDS011;54759;48.094;-1.628;2023-04-01T08:14:50;1.30;;;0.30;;
40737;SDS011;54759;48.094;-1.628;2023-04-01T08:18:21;0.20;;;0.20;;
40737;SDS011;54759;48.094;-1.628;2023-04-01T08:21:32;0.40;;;0.20;;
40737;SDS011;54759;48.094;-1.628;2023-04-01T08:24:41;0.38;;;0.20;;
40737;SDS011;54759;48.094;-1.628;2023-04-01T08:27:56;0.60;;;0.20;;
40737;SDS011;54759;48.094;-1.628;2023-04-01T08:31:04;0.75;;;0.30;;
40737;SDS011;54759;48.094;-1.628;2023-04-01T08:34:10;0.65;;;0.35;;
40737;SDS011;54759;48.094;-1.628;2023-04-01T08:37:22;0.55;;;0.22;;
40737;SDS011;54759;48.094;-1.628;2023-04-01T08:44:03;0.70;;;0.30;;
40737;SDS011;54759;48.094;-1.628;2023-04-01T08:47:23;0.43;;;0.20;;
40737;SDS011;54759;48.094;-1.628;2023-04-01T08:50:36;0.98;;;0.35;;
40737;SDS011;54759;48.094;-1.628;2023-04-01T08:54:03;0.50;;;0.30;;
40737;SDS011;54759;48.094;-1.628;2023-04-01T08:57:21;0.88;;;0.30;;
40737;SDS011;54759;48.094;-1.628;2023-04-01T09:00:56;0.30;;;0.20;;
40737;SDS011;54759;48.094;-1.628;2023-04-01T09:04:25;0.50;;;0.30;;
40737;SDS011;54759;48.094;-1.628;2023-04-01T09:07:34;0.52;;;0.35;;
40737;SDS011;54759;48.094;-1.628;2023-04-01T09:10:49;0.50;;;0.30;;
40737;SDS011;54759;48.094;-1.628;2023-04-01T09:14:22;1.10;;;0.20;;
40737;SDS011;54759;48.094;-1.628;2023-04-01T09:17:56;1.00;;;0.20;;
40737;SDS011;54759;48.094;-1.628;2023-04-01T09:21:25;0.57;;;0.30;;
40737;SDS011;54759;48.094;-1.628;2023-04-01T09:24:42;0.43;;;0.30;;
40737;SDS011;54759;48.094;-1.628;2023-04-01T09:27:57;0.40;;;0.30;;
40737;SDS011;54759;48.094;-1.628;2023-04-01T09:31:20;0.52;;;0.20;;
40737;SDS011;54759;48.094;-1.628;2023-04-01T09:34:55;0.82;;;0.30;;
40737;SDS011;54759;48.094;-1.628;2023-04-01T09:38:09;0.32;;;0.20;;
40737;SDS011;54759;48.094;-1.628;2023-04-01T09:41:24;0.90;;;0.30;;
40737;SDS011;54759;48.094;-1.628;2023-04-01T09:44:37;0.20;;;0.10;;
40737;SDS011;54759;48.094;-1.628;2023-04-01T09:47:51;0.80;;;0.38;;
40737;SDS011;54759;48.094;-1.628;2023-04-01T09:51:06;0.50;;;0.40;;
40737;SDS011;54759;48.094;-1.628;2023-04-01T09:54:20;0.30;;;0.20;;
40737;SDS011;54759;48.094;-1.628;2023-04-01T09:57:37;0.30;;;0.20;;
40737;SDS011;54759;48.094;-1.628;2023-04-01T10:01:11;1.00;;;0.30;;
40737;SDS011;54759;48.094;-1.628;2023-04-01T10:08:10;0.63;;;0.25;;
40737;SDS011;54759;48.094;-1.628;2023-04-01T10:11:38;0.45;;;0.22;;
40737;SDS011;54759;48.094;-1.628;2023-04-01T10:18:39;0.30;;;0.20;;
40737;SDS011;54759;48.094;-1.628;2023-04-01T10:22:01;0.68;;;0.20;;
40737;SDS011;54759;48.094;-1.628;2023-04-01T10:25:23;0.30;;;0.20;;
40737;SDS011;54759;48.094;-1.628;2023-04-01T10:28:53;0.52;;;0.20;;
40737;SDS011;54759;48.094;-1.628;2023-04-01T10:32:16;0.68;;;0.20;;
40737;SDS011;54759;48.094;-1.628;2023-04-01T10:35:49;0.50;;;0.20;;
40737;SDS011;54759;48.094;-1.628;2023-04-01T10:39:22;0.50;;;0.22;;
40737;SDS011;54759;48.094;-1.628;2023-04-01T10:46:44;0.30;;;0.20;;
40737;SDS011;54759;48.094;-1.628;2023-04-01T10:50:18;0.82;;;0.28;;
40737;SDS011;54759;48.094;-1.628;2023-04-01T10:53:36;0.20;;;0.20;;
40737;SDS011;54759;48.094;-1.628;2023-04-01T10:57:06;0.45;;;0.20;;
40737;SDS011;54759;48.094;-1.628;2023-04-01T11:00:46;0.70;;;0.30;;
40737;SDS011;54759;48.094;-1.628;2023-04-01T11:15:16;0.68;;;0.40;;
40737;SDS011;54759;48.094;-1.628;2023-04-01T11:18:47;0.47;;;0.30;;
40737;SDS011;54759;48.094;-1.628;2023-04-01T11:22:10;0.68;;;0.30;;
40737;SDS011;54759;48.094;-1.628;2023-04-01T11:32:43;0.20;;;0.20;;
40737;SDS011;54759;48.094;-1.628;2023-04-01T11:35:55;0.63;;;0.13;;
40737;SDS011;54759;48.094;-1.628;2023-04-01T11:39:14;0.45;;;0.20;;
40737;SDS011;54759;48.094;-1.628;2023-04-01T11:42:42;0.52;;;0.20;;
40737;SDS011;54759;48.094;-1.628;2023-04-01T11:46:09;0.45;;;0.20;;
40737;SDS011;54759;48.094;-1.628;2023-04-01T11:49:18;0.95;;;0.20;;
40737;SDS011;54759;48.094;-1.628;2023-04-01T11:52:47;0.38;;;0.20;;
40737;SDS011;54759;48.094;-1.628;2023-04-01T11:56:02;2.47;;;0.30;;
40737;SDS011;54759;48.094;-1.628;2023-04-01T11:59:20;0.50;;;0.20;;
40737;SDS011;54759;48.094;-1.628;2023-04-01T12:02:42;0.38;;;0.20;;
40737;SDS011;54759;48.094;-1.628;2023-04-01T12:06:00;0.30;;;0.20;;
40737;SDS011;54759;48.094;-1.628;2023-04-01T12:09:08;0.40;;;0.28;;
40737;SDS011;54759;48.094;-1.628;2023-04-01T12:12:18;0.65;;;0.30;;
40737;SDS011;54759;48.094;-1.628;2023-04-01T12:15:28;0.40;;;0.20;;
40737;SDS011;54759;48.094;-1.628;2023-04-01T12:21:42;0.22;;;0.10;;
40737;SDS011;54759;48.094;-1.628;2023-04-01T12:24:52;0.55;;;0.20;;
40737;SDS011;54759;48.094;-1.628;2023-04-01T12:28:02;0.50;;;0.30;;
40737;SDS011;54759;48.094;-1.628;2023-04-01T12:31:17;0.20;;;0.13;;
40737;SDS011;54759;48.094;-1.628;2023-04-01T12:34:34;0.80;;;0.28;;
40737;SDS011;54759;48.094;-1.628;2023-04-01T12:37:56;0.40;;;0.30;;
40737;SDS011;54759;48.094;-1.628;2023-04-01T12:41:09;0.47;;;0.20;;
40737;SDS011;54759;48.094;-1.628;2023-04-01T12:44:26;0.52;;;0.20;;
40737;SDS011;54759;48.094;-1.628;2023-04-01T12:47:47;0.88;;;0.20;;
40737;SDS011;54759;48.094;-1.628;2023-04-01T12:51:16;0.30;;;0.15;;
40737;SDS011;54759;48.094;-1.628;2023-04-01T12:54:38;0.25;;;0.20;;
40737;SDS011;54759;48.094;-1.628;2023-04-01T12:58:05;0.35;;;0.22;;
40737;SDS011;54759;48.094;-1.628;2023-04-01T13:04:56;0.38;;;0.10;;
40737;SDS011;54759;48.094;-1.628;2023-04-01T13:08:17;0.47;;;0.20;;
40737;SDS011;54759;48.094;-1.628;2023-04-01T13:11:34;0.32;;;0.20;;
40737;SDS011;54759;48.094;-1.628;2023-04-01T13:14:52;0.43;;;0.28;;
40737;SDS011;54759;48.094;-1.628;2023-04-01T13:18:13;0.10;;;0.10;;
40737;SDS011;54759;48.094;-1.628;2023-04-01T13:21:26;0.65;;;0.32;;
40737;SDS011;54759;48.094;-1.628;2023-04-01T13:24:42;0.40;;;0.30;;
40737;SDS011;54759;48.094;-1.628;2023-04-01T13:27:50;0.35;;;0.25;;
40737;SDS011;54759;48.094;-1.628;2023-04-01T13:30:58;0.50;;;0.30;;
40737;SDS011;54759;48.094;-1.628;2023-04-01T13:34:12;0.30;;;0.20;;
40737;SDS011;54759;48.094;-1.628;2023-04-01T13:37:30;0.40;;;0.20;;
40737;SDS011;54759;48.094;-1.628;2023-04-01T13:40:45;0.25;;;0.20;;
40737;SDS011;54759;48.094;-1.628;2023-04-01T13:44:07;0.40;;;0.20;;
40737;SDS011;54759;48.094;-1.628;2023-04-01T13:47:21;0.43;;;0.30;;
40737;SDS011;54759;48.094;-1.628;2023-04-01T13:50:45;0.50;;;0.20;;
40737;SDS011;54759;48.094;-1.628;2023-04-01T13:57:23;0.45;;;0.30;;
40737;SDS011;54759;48.094;-1.628;2023-04-01T14:00:39;0.80;;;0.35;;
40737;SDS011;54759;48.094;-1.628;2023-04-01T14:03:51;0.45;;;0.30;;
40737;SDS011;54759;48.094;-1.628;2023-04-01T14:07:08;0.73;;;0.20;;
40737;SDS011;54759;48.094;-1.628;2023-04-01T14:10:25;0.60;;;0.20;;
40737;SDS011;54759;48.094;-1.628;2023-04-01T14:13:38;0.50;;;0.20;;
40737;SDS011;54759;48.094;-1.628;2023-04-01T14:16:55;0.40;;;0.17;;
40737;SDS011;54759;48.094;-1.628;2023-04-01T14:20:15;0.38;;;0.28;;
40737;SDS011;54759;48.094;-1.628;2023-04-01T14:23:27;0.63;;;0.40;;
40737;SDS011;54759;48.094;-1.628;2023-04-01T14:30:11;0.22;;;0.20;;
40737;SDS011;54759;48.094;-1.628;2023-04-01T14:33:33;0.10;;;0.10;;
40737;SDS011;54759;48.094;-1.628;2023-04-01T14:36:45;0.50;;;0.22;;
40737;SDS011;54759;48.094;-1.628;2023-04-01T14:39:59;0.77;;;0.20;;
40737;SDS011;54759;48.094;-1.628;2023-04-01T14:43:16;0.30;;;0.20;;
40737;SDS011;54759;48.094;-1.628;2023-04-01T14:46:32;0.63;;;0.20;;
40737;SDS011;54759;48.094;-1.628;2023-04-01T14:49:50;0.65;;;0.10;;
40737;SDS011;54759;48.094;-1.628;2023-04-01T14:52:56;0.60;;;0.20;;
40737;SDS011;54759;48.094;-1.628;2023-04-01T14:56:00;0.20;;;0.20;;
40737;SDS011;54759;48.094;-1.628;2023-04-01T14:59:04;0.30;;;0.20;;
40737;SDS011;54759;48.094;-1.628;2023-04-01T15:02:15;0.43;;;0.20;;
40737;SDS011;54759;48.094;-1.628;2023-04-01T15:05:35;0.35;;;0.28;;
40737;SDS011;54759;48.094;-1.628;2023-04-01T15:08:50;0.57;;;0.20;;
40737;SDS011;54759;48.094;-1.628;2023-04-01T15:12:04;0.20;;;0.13;;
40737;SDS011;54759;48.094;-1.628;2023-04-01T15:18:20;0.38;;;0.20;;
40737;SDS011;54759;48.094;-1.628;2023-04-01T15:24:43;0.55;;;0.20;;
40737;SDS011;54759;48.094;-1.628;2023-04-01T15:27:49;0.45;;;0.30;;
40737;SDS011;54759;48.094;-1.628;2023-04-01T15:30:56;1.20;;;0.47;;
40737;SDS011;54759;48.094;-1.628;2023-04-01T15:34:16;0.10;;;0.10;;
40737;SDS011;54759;48.094;-1.628;2023-04-01T15:37:31;0.50;;;0.25;;
40737;SDS011;54759;48.094;-1.628;2023-04-01T15:40:41;0.17;;;0.10;;
40737;SDS011;54759;48.094;-1.628;2023-04-01T15:43:47;0.80;;;0.50;;
40737;SDS011;54759;48.094;-1.628;2023-04-01T15:46:49;0.65;;;0.30;;
40737;SDS011;54759;48.094;-1.628;2023-04-01T15:49:53;0.22;;;0.20;;
40737;SDS011;54759;48.094;-1.628;2023-04-01T15:53:01;0.50;;;0.20;;
40737;SDS011;54759;48.094;-1.628;2023-04-01T15:56:18;0.40;;;0.20;;
40737;SDS011;54759;48.094;-1.628;2023-04-01T15:59:31;0.30;;;0.13;;
40737;SDS011;54759;48.094;-1.628;2023-04-01T16:02:48;0.10;;;0.10;;
40737;SDS011;54759;48.094;-1.628;2023-04-01T16:06:01;0.20;;;0.10;;
40737;SDS011;54759;48.094;-1.628;2023-04-01T16:09:23;0.22;;;0.20;;
40737;SDS011;54759;48.094;-1.628;2023-04-01T16:12:41;0.30;;;0.20;;
40737;SDS011;54759;48.094;-1.628;2023-04-01T16:15:56;0.55;;;0.20;;
40737;SDS011;54759;48.094;-1.628;2023-04-01T16:19:06;0.30;;;0.20;;
40737;SDS011;54759;48.094;-1.628;2023-04-01T16:22:20;0.30;;;0.22;;
40737;SDS011;54759;48.094;-1.628;2023-04-01T16:25:31;0.57;;;0.20;;
40737;SDS011;54759;48.094;-1.628;2023-04-01T16:28:38;0.75;;;0.40;;
40737;SDS011;54759;48.094;-1.628;2023-04-01T16:31:51;0.50;;;0.22;;
40737;SDS011;54759;48.094;-1.628;2023-04-01T16:34:58;1.38;;;0.20;;
40737;SDS011;54759;48.094;-1.628;2023-04-01T16:38:16;0.30;;;0.30;;
40737;SDS011;54759;48.094;-1.628;2023-04-01T16:41:24;0.55;;;0.38;;
40737;SDS011;54759;48.094;-1.628;2023-04-01T16:44:30;0.40;;;0.17;;
40737;SDS011;54759;48.094;-1.628;2023-04-01T16:47:46;0.43;;;0.40;;
40737;SDS011;54759;48.094;-1.628;2023-04-01T16:50:52;1.02;;;0.40;;
40737;SDS011;54759;48.094;-1.628;2023-04-01T16:54:01;0.65;;;0.30;;
40737;SDS011;54759;48.094;-1.628;2023-04-01T16:57:14;0.50;;;0.20;;
40737;SDS011;54759;48.094;-1.628;2023-04-01T17:00:24;0.20;;;0.20;;
40737;SDS011;54759;48.094;-1.628;2023-04-01T17:03:28;0.57;;;0.20;;
40737;SDS011;54759;48.094;-1.628;2023-04-01T17:06:37;0.10;;;0.10;;
40737;SDS011;54759;48.094;-1.628;2023-04-01T17:09:49;0.32;;;0.20;;
40737;SDS011;54759;48.094;-1.628;2023-04-01T17:13:18;0.57;;;0.20;;
40737;SDS011;54759;48.094;-1.628;2023-04-01T17:19:56;0.30;;;0.17;;
40737;SDS011;54759;48.094;-1.628;2023-04-01T17:23:17;0.28;;;0.20;;
40737;SDS011;54759;48.094;-1.628;2023-04-01T17:26:26;0.35;;;0.20;;
40737;SDS011;54759;48.094;-1.628;2023-04-01T17:29:43;0.10;;;0.10;;
40737;SDS011;54759;48.094;-1.628;2023-04-01T17:33:08;0.25;;;0.25;;
40737;SDS011;54759;48.094;-1.628;2023-04-01T17:36:31;0.20;;;0.20;;
40737;SDS011;54759;48.094;-1.628;2023-04-01T17:39:45;0.13;;;0.10;;
40737;SDS011;54759;48.094;-1.628;2023-04-01T17:42:56;0.30;;;0.20;;
40737;SDS011;54759;48.094;-1.628;2023-04-01T17:46:05;0.30;;;0.20;;
40737;SDS011;54759;48.094;-1.628;2023-04-01T17:49:25;0.10;;;0.10;;
40737;SDS011;54759;48.094;-1.628;2023-04-01T17:52:33;0.30;;;0.20;;
40737;SDS011;54759;48.094;-1.628;2023-04-01T17:55:46;0.10;;;0.10;;
40737;SDS011;54759;48.094;-1.628;2023-04-01T17:58:58;0.20;;;0.10;;
40737;SDS011;54759;48.094;-1.628;2023-04-01T18:02:09;0.35;;;0.22;;
40737;SDS011;54759;48.094;-1.628;2023-04-01T18:05:24;0.17;;;0.10;;
40737;SDS011;54759;48.094;-1.628;2023-04-01T18:08:45;0.10;;;0.10;;
40737;SDS011;54759;48.094;-1.628;2023-04-01T18:12:05;0.22;;;0.20;;
40737;SDS011;54759;48.094;-1.628;2023-04-01T18:15:21;0.30;;;0.30;;
40737;SDS011;54759;48.094;-1.628;2023-04-01T18:18:36;0.20;;;0.20;;
40737;SDS011;54759;48.094;-1.628;2023-04-01T18:21:48;0.20;;;0.10;;
40737;SDS011;54759;48.094;-1.628;2023-04-01T18:24:56;0.60;;;0.20;;
40737;SDS011;54759;48.094;-1.628;2023-04-01T18:31:23;0.10;;;0.10;;
40737;SDS011;54759;48.094;-1.628;2023-04-01T18:34:36;0.20;;;0.20;;
40737;SDS011;54759;48.094;-1.628;2023-04-01T18:37:44;0.30;;;0.25;;
40737;SDS011;54759;48.094;-1.628;2023-04-01T18:40:50;0.20;;;0.20;;
40737;SDS011;54759;48.094;-1.628;2023-04-01T18:44:03;0.40;;;0.20;;
40737;SDS011;54759;48.094;-1.628;2023-04-01T18:47:22;0.40;;;0.17;;
40737;SDS011;54759;48.094;-1.628;2023-04-01T18:50:29;0.52;;;0.22;;
40737;SDS011;54759;48.094;-1.628;2023-04-01T18:53:39;0.10;;;0.10;;
40737;SDS011;54759;48.094;-1.628;2023-04-01T18:56:44;0.22;;;0.17;;
40737;SDS011;54759;48.094;-1.628;2023-04-01T18:59:49;0.10;;;0.10;;
40737;SDS011;54759;48.094;-1.628;2023-04-01T19:02:56;0.17;;;0.10;;
40737;SDS011;54759;48.094;-1.628;2023-04-01T19:06:08;0.30;;;0.28;;
40737;SDS011;54759;48.094;-1.628;2023-04-01T19:09:20;0.40;;;0.30;;
40737;SDS011;54759;48.094;-1.628;2023-04-01T19:12:32;0.10;;;0.10;;
40737;SDS011;54759;48.094;-1.628;2023-04-01T19:15:39;0.32;;;0.22;;
40737;SDS011;54759;48.094;-1.628;2023-04-01T19:18:53;0.30;;;0.20;;
40737;SDS011;54759;48.094;-1.628;2023-04-01T19:22:09;0.63;;;0.20;;
40737;SDS011;54759;48.094;-1.628;2023-04-01T19:25:28;0.25;;;0.20;;
40737;SDS011;54759;48.094;-1.628;2023-04-01T19:28:37;0.38;;;0.10;;
40737;SDS011;54759;48.094;-1.628;2023-04-01T19:31:51;0.17;;;0.17;;
40737;SDS011;54759;48.094;-1.628;2023-04-01T19:35:04;0.52;;;0.20;;
40737;SDS011;54759;48.094;-1.628;2023-04-01T19:38:21;0.20;;;0.20;;
40737;SDS011;54759;48.094;-1.628;2023-04-01T19:41:32;0.10;;;0.10;;
40737;SDS011;54759;48.094;-1.628;2023-04-01T19:44:43;0.28;;;0.20;;
40737;SDS011;54759;48.094;-1.628;2023-04-01T19:48:00;0.32;;;0.30;;
40737;SDS011;54759;48.094;-1.628;2023-04-01T19:51:11;0.10;;;0.10;;
40737;SDS011;54759;48.094;-1.628;2023-04-01T19:54:21;0.93;;;0.40;;
40737;SDS011;54759;48.094;-1.628;2023-04-01T19:57:38;0.50;;;0.22;;
40737;SDS011;54759;48.094;-1.628;2023-04-01T20:00:47;0.28;;;0.20;;
40737;SDS011;54759;48.094;-1.628;2023-04-01T20:03:53;0.25;;;0.20;;
40737;SDS011;54759;48.094;-1.628;2023-04-01T20:06:57;0.40;;;0.20;;
40737;SDS011;54759;48.094;-1.628;2023-04-01T20:10:06;0.15;;;0.10;;
40737;SDS011;54759;48.094;-1.628;2023-04-01T20:13:14;0.28;;;0.10;;
40737;SDS011;54759;48.094;-1.628;2023-04-01T20:19:41;0.70;;;0.22;;
40737;SDS011;54759;48.094;-1.628;2023-04-01T20:26:20;0.95;;;0.30;;
40737;SDS011;54759;48.094;-1.628;2023-04-01T20:29:35;0.17;;;0.10;;
40737;SDS011;54759;48.094;-1.628;2023-04-01T20:32:47;0.47;;;0.20;;
40737;SDS011;54759;48.094;-1.628;2023-04-01T20:36:06;0.20;;;0.10;;
40737;SDS011;54759;48.094;-1.628;2023-04-01T20:39:17;0.30;;;0.20;;
40737;SDS011;54759;48.094;-1.628;2023-04-01T20:42:34;0.52;;;0.30;;